Terminal Aerodrome Forecast
Issued by NWS Wilmington, OH

Current Version | Previous Version | Graphics & Text | Print | Product List | Glossary On
Versions: 1 2 3 4 5 6 7 8 9 10 11 12 13 14 15 16 17 18 19 20
000
FTUS41 KILN 222300
TAFILN
TAF
KILN 222321Z 2300/2324 VRB03KT P6SM OVC018
     FM231000 VRB03KT P6SM SCT020 BKN250
      TEMPO 2310/2313 5SM BR
     FM231400 22003KT P6SM SCT025 BKN250=

USA.gov is the U.S. government's official web portal to all federal, state and local government web resources and services.